createdAt,value
2018-10-17T00:01:12.316Z,2.50
2018-10-17T00:03:41.076Z,2.87
2018-10-17T00:06:09.870Z,2.83
2018-10-17T00:08:38.569Z,2.20
2018-10-17T00:11:07.288Z,4.10
2018-10-17T00:13:35.994Z,3.47
2018-10-17T00:16:04.682Z,2.30
2018-10-17T00:18:33.464Z,2.30
2018-10-17T00:21:02.353Z,3.10
2018-10-17T00:23:31.057Z,2.17
2018-10-17T00:25:59.747Z,2.30
2018-10-17T00:28:28.449Z,2.20
2018-10-17T00:30:57.151Z,2.80
2018-10-17T00:33:25.844Z,3.30
2018-10-17T00:35:54.625Z,4.57
2018-10-17T00:38:23.316Z,2.97
2018-10-17T00:40:52.035Z,3.87
2018-10-17T00:43:20.736Z,5.90
2018-10-17T00:45:49.432Z,5.07
2018-10-17T00:48:18.140Z,9.33
2018-10-17T00:50:46.851Z,5.33
2018-10-17T00:53:15.573Z,9.60
2018-10-17T00:55:44.225Z,13.07
2018-10-17T00:58:12.911Z,11.53
2018-10-17T01:00:41.687Z,17.53
2018-10-17T01:03:10.376Z,14.97
2018-10-17T01:05:39.060Z,21.37
2018-10-17T01:08:07.749Z,15.40
2018-10-17T01:10:36.452Z,16.80
2018-10-17T01:13:05.236Z,16.00
2018-10-17T01:15:33.910Z,14.63
2018-10-17T01:18:02.605Z,14.20
2018-10-17T01:20:31.312Z,13.27
2018-10-17T01:22:59.992Z,11.37
2018-10-17T01:25:28.696Z,10.70
2018-10-17T01:27:57.404Z,19.20
2018-10-17T01:30:26.169Z,17.23
2018-10-17T01:32:54.893Z,18.53
2018-10-17T01:35:23.611Z,19.27
2018-10-17T01:37:52.296Z,19.10
2018-10-17T01:40:21.009Z,20.30
2018-10-17T01:42:49.715Z,23.70
2018-10-17T01:45:18.407Z,20.20
2018-10-17T01:47:47.099Z,16.17
2018-10-17T01:50:15.787Z,18.53
2018-10-17T01:52:44.460Z,21.27
2018-10-17T01:55:13.176Z,24.80
2018-10-17T01:57:41.839Z,21.67
2018-10-17T02:00:10.540Z,14.67
2018-10-17T02:02:39.231Z,18.20
2018-10-17T02:05:07.998Z,19.03
2018-10-17T02:07:36.679Z,23.97
2018-10-17T02:10:05.404Z,18.80
2018-10-17T02:12:34.084Z,14.73
2018-10-17T02:15:02.785Z,20.90
2018-10-17T02:17:31.506Z,13.30
2018-10-17T02:20:00.188Z,21.20
2018-10-17T02:22:28.867Z,19.63
2018-10-17T02:24:57.577Z,18.37
2018-10-17T02:27:26.232Z,22.60
2018-10-17T02:29:54.917Z,18.40
2018-10-17T02:32:23.690Z,14.20
2018-10-17T02:34:57.633Z,15.50
2018-10-17T02:37:26.305Z,25.83
2018-10-17T02:39:54.977Z,26.10
2018-10-17T02:42:23.760Z,20.07
2018-10-17T02:44:52.573Z,16.07
2018-10-17T02:47:21.267Z,17.23
2018-10-17T02:49:49.956Z,17.70
2018-10-17T02:52:18.644Z,19.33
2018-10-17T02:54:47.338Z,19.73
2018-10-17T02:57:16.019Z,19.23
2018-10-17T02:59:44.712Z,17.03
2018-10-17T03:02:13.387Z,16.60
2018-10-17T03:04:42.065Z,18.10
2018-10-17T03:07:10.843Z,18.73
2018-10-17T03:09:39.472Z,16.67
2018-10-17T03:12:08.187Z,16.03
2018-10-17T03:14:36.958Z,21.87
2018-10-17T03:17:05.755Z,21.00
2018-10-17T03:19:34.419Z,22.30
2018-10-17T03:22:03.164Z,21.13
2018-10-17T03:24:31.828Z,19.93
2018-10-17T03:27:00.524Z,16.40
2018-10-17T03:29:29.234Z,14.43
2018-10-17T03:31:57.952Z,15.97
2018-10-17T03:34:26.648Z,10.40
2018-10-17T03:36:55.373Z,20.33
2018-10-17T03:39:24.020Z,7.83
2018-10-17T03:41:52.696Z,13.97
2018-10-17T03:44:21.403Z,10.20
2018-10-17T03:46:50.092Z,14.60
2018-10-17T03:49:18.861Z,13.43
2018-10-17T03:51:47.483Z,13.57
2018-10-17T03:54:16.135Z,11.03
2018-10-17T03:56:44.797Z,14.47
2018-10-17T03:59:13.539Z,11.03
2018-10-17T04:01:42.195Z,10.20
2018-10-17T04:04:10.903Z,10.30
2018-10-17T04:06:39.611Z,11.40
2018-10-17T04:09:09.249Z,14.03
2018-10-17T04:11:37.917Z,10.17
2018-10-17T04:14:06.645Z,11.57
2018-10-17T04:16:35.315Z,14.87
2018-10-17T04:19:04.080Z,11.63
2018-10-17T04:21:32.723Z,15.57
2018-10-17T04:24:01.397Z,10.60
2018-10-17T04:26:30.126Z,14.57
2018-10-17T04:28:58.837Z,12.40
2018-10-17T04:31:27.514Z,14.23
2018-10-17T04:33:56.200Z,14.60
2018-10-17T04:36:24.898Z,8.37
2018-10-17T04:38:53.568Z,8.73
2018-10-17T04:41:22.248Z,10.97
2018-10-17T04:43:50.924Z,10.83
2018-10-17T04:46:19.584Z,14.17
2018-10-17T04:48:48.259Z,15.43
2018-10-17T04:51:16.943Z,8.13
2018-10-17T04:53:45.659Z,11.03
2018-10-17T04:56:14.342Z,9.13
2018-10-17T04:58:43.012Z,10.37
2018-10-17T05:01:11.734Z,12.83
2018-10-17T05:03:40.409Z,14.63
2018-10-17T05:06:09.092Z,15.17
2018-10-17T05:08:37.805Z,7.93
2018-10-17T05:11:06.944Z,16.47
2018-10-17T05:13:35.617Z,14.23
2018-10-17T05:16:04.310Z,10.80
2018-10-17T05:18:33.028Z,11.80
2018-10-17T05:21:01.713Z,6.87
2018-10-17T05:23:30.371Z,8.50
2018-10-17T05:25:59.032Z,13.07
2018-10-17T05:28:27.671Z,7.47
2018-10-17T05:30:56.361Z,12.60
2018-10-17T05:33:25.035Z,10.50
2018-10-17T05:35:53.730Z,12.17
2018-10-17T05:38:22.742Z,9.97
2018-10-17T05:40:51.465Z,9.17
2018-10-17T05:43:20.119Z,8.67
2018-10-17T05:45:48.812Z,14.07
2018-10-17T05:48:17.472Z,10.20
2018-10-17T05:50:46.271Z,15.20
2018-10-17T05:53:15.084Z,15.77
2018-10-17T05:55:43.691Z,13.03
2018-10-17T05:58:12.452Z,10.70
2018-10-17T06:00:41.142Z,16.63
2018-10-17T06:03:09.808Z,10.40
2018-10-17T06:05:38.511Z,6.00
2018-10-17T06:08:07.272Z,14.73
2018-10-17T06:10:36.020Z,7.53
2018-10-17T06:13:04.814Z,7.50
2018-10-17T06:15:33.499Z,10.03
2018-10-17T06:18:02.175Z,18.60
2018-10-17T06:20:30.919Z,5.27
2018-10-17T06:22:59.676Z,12.53
2018-10-17T06:25:28.385Z,12.77
2018-10-17T06:27:57.024Z,10.43
2018-10-17T06:30:25.751Z,10.23
2018-10-17T06:32:54.608Z,12.93
2018-10-17T06:35:23.315Z,13.83
2018-10-17T06:37:52.008Z,10.63
2018-10-17T06:40:20.790Z,9.93
2018-10-17T06:42:49.484Z,9.20
2018-10-17T06:45:18.196Z,12.67
2018-10-17T06:47:46.892Z,6.17
2018-10-17T06:50:15.577Z,13.00
2018-10-17T06:52:44.280Z,18.50
2018-10-17T06:55:13.027Z,10.37
2018-10-17T06:57:41.707Z,7.77
2018-10-17T07:00:11.300Z,8.87
2018-10-17T07:02:40.016Z,8.43
2018-10-17T07:05:09.912Z,6.23
2018-10-17T07:07:38.588Z,15.53
2018-10-17T07:10:07.359Z,9.73
2018-10-17T07:12:36.101Z,8.07
2018-10-17T07:15:05.502Z,14.87
2018-10-17T07:17:34.202Z,11.37
2018-10-17T07:20:03.001Z,6.97
2018-10-17T07:22:31.697Z,9.27
2018-10-17T07:25:00.455Z,6.20
2018-10-17T07:27:29.112Z,7.90
2018-10-17T07:29:57.904Z,8.23
2018-10-17T07:32:26.627Z,10.60
2018-10-17T07:34:55.354Z,5.67
2018-10-17T07:37:24.123Z,10.77
2018-10-17T07:39:52.847Z,4.87
2018-10-17T07:42:21.532Z,10.83
2018-10-17T07:44:50.237Z,7.83
2018-10-17T07:47:18.926Z,10.60
2018-10-17T07:49:47.628Z,17.87
2018-10-17T07:52:16.315Z,9.30
2018-10-17T07:54:45.015Z,9.93
2018-10-17T07:57:13.726Z,13.63
2018-10-17T07:59:42.492Z,17.57
2018-10-17T08:02:11.164Z,14.87
2018-10-17T08:04:39.864Z,23.03
2018-10-17T08:07:08.546Z,14.97
2018-10-17T08:09:37.236Z,10.83
2018-10-17T08:12:05.926Z,17.13
2018-10-17T08:14:34.607Z,13.97
2018-10-17T08:17:03.322Z,13.10
2018-10-17T08:19:32.036Z,12.20
2018-10-17T08:22:00.744Z,11.00
2018-10-17T08:24:29.436Z,12.27
2018-10-17T08:26:58.144Z,11.93
2018-10-17T08:29:27.383Z,14.43
2018-10-17T08:31:56.153Z,9.30
2018-10-17T08:34:24.849Z,8.17
2018-10-17T08:36:53.640Z,8.97
2018-10-17T08:39:22.301Z,7.70
2018-10-17T08:41:50.987Z,6.03
2018-10-17T08:44:19.822Z,11.50
2018-10-17T08:46:48.552Z,5.17
2018-10-17T08:49:17.271Z,14.00
2018-10-17T08:51:45.999Z,9.90
2018-10-17T08:54:14.724Z,7.27
2018-10-17T08:56:43.488Z,13.40
2018-10-17T08:59:12.183Z,13.57
2018-10-17T09:01:40.893Z,11.60
2018-10-17T09:04:09.633Z,16.93
2018-10-17T09:06:38.322Z,11.80
2018-10-17T09:09:11.686Z,14.33
2018-10-17T09:11:40.982Z,22.30
2018-10-17T09:14:10.115Z,24.17
2018-10-17T09:16:39.298Z,17.87
2018-10-17T09:19:08.372Z,23.13
2018-10-17T09:21:37.356Z,19.50
2018-10-17T09:24:06.081Z,19.03
2018-10-17T09:26:34.947Z,21.10
2018-10-17T09:29:03.986Z,21.27
2018-10-17T09:31:32.733Z,26.37
2018-10-17T09:34:01.526Z,24.47
2018-10-17T09:36:30.316Z,22.83
2018-10-17T09:38:59.056Z,26.13
2018-10-17T09:41:27.769Z,20.97
2018-10-17T09:43:56.523Z,25.50
2018-10-17T09:46:25.315Z,18.53
2018-10-17T09:48:54.101Z,19.67
2018-10-17T09:51:22.828Z,26.00
2018-10-17T09:53:51.563Z,21.60
2018-10-17T09:56:20.316Z,24.10
2018-10-17T09:58:49.035Z,22.73
2018-10-17T10:01:22.866Z,20.40
2018-10-17T10:03:51.647Z,28.07
2018-10-17T10:06:20.346Z,28.60
2018-10-17T10:08:49.049Z,24.40
2018-10-17T10:11:17.732Z,19.37
2018-10-17T10:13:46.482Z,24.77
2018-10-17T10:16:15.248Z,18.37
2018-10-17T10:18:43.925Z,25.53
2018-10-17T10:21:12.671Z,23.43
2018-10-17T10:23:41.481Z,23.50
2018-10-17T10:26:10.168Z,28.53
2018-10-17T10:28:38.990Z,22.53
2018-10-17T10:31:07.665Z,18.67
2018-10-17T10:33:36.362Z,23.53
2018-10-17T10:36:05.206Z,25.60
2018-10-17T10:38:33.855Z,30.37
2018-10-17T10:41:02.545Z,31.30
2018-10-17T10:43:31.252Z,24.33
2018-10-17T10:46:00.038Z,31.07
2018-10-17T10:48:28.980Z,25.90
2018-10-17T10:50:57.721Z,26.53
2018-10-17T10:53:26.408Z,35.80
2018-10-17T10:55:55.212Z,28.70
2018-10-17T10:58:24.215Z,32.40
2018-10-17T11:00:53.689Z,29.97
2018-10-17T11:03:22.412Z,29.03
2018-10-17T11:05:51.170Z,30.13
2018-10-17T11:08:19.858Z,30.67
2018-10-17T11:10:48.569Z,25.30
2018-10-17T11:13:17.231Z,27.83
2018-10-17T11:15:45.922Z,19.97
2018-10-17T11:18:14.623Z,29.70
2018-10-17T11:20:43.331Z,37.93
2018-10-17T11:23:12.837Z,46.93
2018-10-17T11:25:41.542Z,46.00
2018-10-17T11:28:10.247Z,37.47
2018-10-17T11:30:38.927Z,42.10
2018-10-17T11:33:07.669Z,31.43
2018-10-17T11:35:36.379Z,32.33
2018-10-17T11:38:05.196Z,28.87
2018-10-17T11:40:33.984Z,33.17
2018-10-17T11:43:02.711Z,22.83
2018-10-17T11:45:31.416Z,24.57
2018-10-17T11:48:00.129Z,27.67
2018-10-17T11:50:28.893Z,24.77
2018-10-17T11:52:59.416Z,27.80
2018-10-17T11:55:28.121Z,27.00
2018-10-17T11:57:56.817Z,23.80
2018-10-17T12:00:25.526Z,23.00
2018-10-17T12:02:54.310Z,26.67
2018-10-17T12:05:23.239Z,18.93
2018-10-17T12:07:51.710Z,24.87
2018-10-17T12:10:20.400Z,21.40
2018-10-17T12:12:49.115Z,23.80
2018-10-17T12:15:17.934Z,22.10
2018-10-17T12:17:46.545Z,22.70
2018-10-17T12:20:15.930Z,20.53
2018-10-17T12:22:45.344Z,14.30
2018-10-17T12:25:14.632Z,21.37
2018-10-17T12:27:43.375Z,20.47
2018-10-17T12:30:15.146Z,21.67
2018-10-17T12:32:43.852Z,21.17
2018-10-17T12:35:13.041Z,18.60
2018-10-17T12:37:41.692Z,21.77
2018-10-17T12:40:11.355Z,27.20
2018-10-17T12:42:40.015Z,23.17
2018-10-17T12:45:08.780Z,21.30
2018-10-17T12:47:37.436Z,17.67
2018-10-17T12:50:07.367Z,22.03
2018-10-17T12:52:36.149Z,27.10
2018-10-17T12:55:05.710Z,22.10
2018-10-17T12:57:34.352Z,23.57
2018-10-17T13:00:03.121Z,20.47
2018-10-17T13:02:31.853Z,18.93
2018-10-17T13:05:00.609Z,21.90
2018-10-17T13:07:29.336Z,16.83
2018-10-17T13:09:58.049Z,19.03
2018-10-17T13:12:26.735Z,17.70
2018-10-17T13:14:55.496Z,24.43
2018-10-17T13:17:24.236Z,18.10
2018-10-17T13:19:52.940Z,18.63
2018-10-17T13:22:21.608Z,23.37
2018-10-17T13:24:50.323Z,23.20
2018-10-17T13:27:19.089Z,24.83
2018-10-17T13:29:47.790Z,29.77
2018-10-17T13:32:16.448Z,19.53
2018-10-17T13:34:45.164Z,26.00
2018-10-17T13:37:14.012Z,17.50
2018-10-17T13:39:42.760Z,18.93
2018-10-17T13:42:11.590Z,22.40
2018-10-17T13:44:40.257Z,21.27
2018-10-17T13:47:09.058Z,23.23
2018-10-17T13:49:37.853Z,22.17
2018-10-17T13:52:06.652Z,30.37
2018-10-17T13:54:35.389Z,31.17
2018-10-17T13:57:04.176Z,18.47
2018-10-17T13:59:32.917Z,22.87
2018-10-17T14:02:01.678Z,18.93
2018-10-17T14:04:30.409Z,23.67
2018-10-17T14:06:59.161Z,15.87
2018-10-17T14:09:27.902Z,18.67
2018-10-17T14:11:57.971Z,19.60
2018-10-17T14:14:26.669Z,17.70
2018-10-17T14:16:55.387Z,18.20
2018-10-17T14:19:24.124Z,20.20
2018-10-17T14:21:52.845Z,21.27
2018-10-17T14:24:21.562Z,17.50
2018-10-17T14:26:50.268Z,18.40
2018-10-17T14:29:19.125Z,21.77
2018-10-17T14:31:47.816Z,20.47
2018-10-17T14:34:16.582Z,27.57
2018-10-17T14:36:45.272Z,24.83
2018-10-17T14:39:13.998Z,22.90
2018-10-17T14:41:42.710Z,30.03
2018-10-17T14:44:11.425Z,21.13
2018-10-17T14:46:40.298Z,33.23
2018-10-17T14:49:09.008Z,23.77
2018-10-17T14:51:37.696Z,28.77
2018-10-17T14:54:06.693Z,21.80
2018-10-17T14:56:35.414Z,19.77
2018-10-17T14:59:04.187Z,18.57
2018-10-17T15:01:32.868Z,22.77
2018-10-17T15:04:01.582Z,26.17
2018-10-17T15:06:30.284Z,28.27
2018-10-17T15:08:58.996Z,24.37
2018-10-17T15:11:27.818Z,20.73
2018-10-17T15:13:56.506Z,25.00
2018-10-17T15:16:25.224Z,26.20
2018-10-17T15:18:53.970Z,26.47
2018-10-17T15:21:22.687Z,24.63
2018-10-17T15:23:51.459Z,22.60
2018-10-17T15:26:20.179Z,21.93
2018-10-17T15:28:49.730Z,23.23
2018-10-17T15:31:18.583Z,23.90
2018-10-17T15:33:47.555Z,25.33
2018-10-17T15:36:16.440Z,23.50
2018-10-17T15:38:45.133Z,22.47
2018-10-17T15:41:13.882Z,25.57
2018-10-17T15:43:42.896Z,15.90
2018-10-17T15:46:11.723Z,20.87
2018-10-17T15:48:40.505Z,25.17
2018-10-17T15:51:09.386Z,19.93
2018-10-17T15:53:38.099Z,20.90
2018-10-17T15:56:06.802Z,23.03
2018-10-17T15:58:35.526Z,21.10
2018-10-17T16:01:04.333Z,21.50
2018-10-17T16:03:33.028Z,17.93
2018-10-17T16:06:01.809Z,17.57
2018-10-17T16:08:30.529Z,21.57
2018-10-17T16:10:59.374Z,17.87
2018-10-17T16:13:28.104Z,21.13
2018-10-17T16:15:56.828Z,19.23
2018-10-17T16:18:25.557Z,19.83
2018-10-17T16:20:54.316Z,21.23
2018-10-17T16:23:23.152Z,21.23
2018-10-17T16:25:51.854Z,23.47
2018-10-17T16:28:20.659Z,22.03
2018-10-17T16:30:49.428Z,13.10
2018-10-17T16:33:18.141Z,19.43
2018-10-17T16:35:46.955Z,21.87
2018-10-17T16:38:15.758Z,20.53
2018-10-17T16:40:44.467Z,18.50
2018-10-17T16:43:13.241Z,17.40
2018-10-17T16:45:42.002Z,21.10
2018-10-17T16:48:10.957Z,21.73
2018-10-17T16:50:39.695Z,20.07
2018-10-17T16:53:08.312Z,21.63
2018-10-17T16:55:37.088Z,22.10
2018-10-17T16:58:05.952Z,20.93
2018-10-17T17:00:34.796Z,21.40
2018-10-17T17:03:03.512Z,16.77
2018-10-17T17:05:32.228Z,20.20
2018-10-17T17:08:01.009Z,23.00
2018-10-17T17:10:29.792Z,17.60
2018-10-17T17:12:58.556Z,19.97
2018-10-17T17:15:27.337Z,25.00
2018-10-17T17:17:56.140Z,17.40
2018-10-17T17:20:24.911Z,20.77
2018-10-17T17:22:53.778Z,24.47
2018-10-17T17:25:22.445Z,28.77
2018-10-17T17:27:51.261Z,34.80
2018-10-17T17:30:20.399Z,28.53
2018-10-17T17:32:49.468Z,24.03
2018-10-17T17:37:46.847Z,30.30
2018-10-17T17:40:15.828Z,18.13
2018-10-17T17:42:44.483Z,23.13
2018-10-17T17:45:13.182Z,23.80
2018-10-17T17:47:41.887Z,25.70
2018-10-17T17:50:18.120Z,22.03
2018-10-17T17:52:46.794Z,22.00
2018-10-17T17:55:15.493Z,28.50
2018-10-17T17:57:44.210Z,22.60
2018-10-17T18:00:12.945Z,19.33
2018-10-17T18:02:41.641Z,21.20
2018-10-17T18:05:10.380Z,24.40
2018-10-17T18:07:39.080Z,18.70
2018-10-17T18:10:08.283Z,24.30
2018-10-17T18:12:37.016Z,23.27
2018-10-17T18:15:06.720Z,21.47
2018-10-17T18:17:35.396Z,24.17
2018-10-17T18:20:06.983Z,27.47
2018-10-17T18:22:35.888Z,25.30
2018-10-17T18:25:04.755Z,32.53
2018-10-17T18:27:33.578Z,32.47
2018-10-17T18:30:02.373Z,33.97
2018-10-17T18:32:31.094Z,30.40
2018-10-17T18:34:59.815Z,25.20
2018-10-17T18:37:28.517Z,30.17
2018-10-17T18:39:57.264Z,29.30
2018-10-17T18:42:25.963Z,25.93
2018-10-17T18:44:54.649Z,27.87
2018-10-17T18:47:23.331Z,26.37
2018-10-17T18:49:52.015Z,25.27
2018-10-17T18:52:20.726Z,27.80
2018-10-17T18:54:49.415Z,28.33
2018-10-17T18:57:18.191Z,24.97
2018-10-17T18:59:46.838Z,25.70
2018-10-17T19:02:15.532Z,28.77
2018-10-17T19:04:44.239Z,23.47
2018-10-17T19:07:12.927Z,20.37
2018-10-17T19:09:41.657Z,30.10
2018-10-17T19:12:10.352Z,24.53
2018-10-17T19:14:39.044Z,23.17
2018-10-17T19:17:07.752Z,31.73
2018-10-17T19:19:36.481Z,21.17
2018-10-17T19:22:05.817Z,33.03
2018-10-17T19:24:34.523Z,17.90
2018-10-17T19:27:03.243Z,23.17
2018-10-17T19:29:31.961Z,24.17
2018-10-17T19:32:00.669Z,22.97
2018-10-17T19:34:29.364Z,18.40
2018-10-17T19:36:58.068Z,18.97
2018-10-17T19:39:26.750Z,24.27
2018-10-17T19:41:55.534Z,19.70
2018-10-17T19:44:24.208Z,18.13
2018-10-17T19:46:52.879Z,19.20
2018-10-17T19:49:21.559Z,19.40
2018-10-17T19:51:50.217Z,25.73
2018-10-17T19:54:18.904Z,18.47
2018-10-17T19:56:47.581Z,19.80
2018-10-17T19:59:16.286Z,17.00
2018-10-17T20:01:45.016Z,21.00
2018-10-17T20:04:13.701Z,15.07
2018-10-17T20:06:42.396Z,19.90
2018-10-17T20:09:11.781Z,22.70
2018-10-17T20:11:40.417Z,22.47
2018-10-17T20:14:09.769Z,21.03
2018-10-17T20:16:38.456Z,18.30
2018-10-17T20:19:07.158Z,20.83
2018-10-17T20:21:35.836Z,19.70
2018-10-17T20:24:04.562Z,22.30
2018-10-17T20:26:33.268Z,14.37
2018-10-17T20:29:02.055Z,17.63
2018-10-17T20:31:30.828Z,17.77
2018-10-17T20:33:59.638Z,20.37
2018-10-17T20:36:28.431Z,22.03
2018-10-17T20:38:57.201Z,20.50
2018-10-17T20:41:25.982Z,13.57
2018-10-17T20:43:54.755Z,17.73
2018-10-17T20:46:23.618Z,19.87
2018-10-17T20:48:52.387Z,17.53
2018-10-17T20:51:21.137Z,18.47
2018-10-17T20:53:49.900Z,18.10
2018-10-17T20:56:18.911Z,13.70
2018-10-17T20:58:47.583Z,15.60
2018-10-17T21:01:16.306Z,15.17
2018-10-17T21:03:45.005Z,14.30
2018-10-17T21:06:13.725Z,12.97
2018-10-17T21:08:42.432Z,20.37
2018-10-17T21:11:11.164Z,16.60
2018-10-17T21:13:39.833Z,16.13
2018-10-17T21:16:08.562Z,15.03
2018-10-17T21:18:37.298Z,15.33
2018-10-17T21:21:06.359Z,14.80
2018-10-17T21:23:35.039Z,14.30
2018-10-17T21:26:03.730Z,15.37
2018-10-17T21:28:32.451Z,18.27
2018-10-17T21:31:01.204Z,16.43
2018-10-17T21:33:29.936Z,13.30
2018-10-17T21:35:58.660Z,13.53
2018-10-17T21:38:27.344Z,15.47
2018-10-17T21:40:56.048Z,15.23
2018-10-17T21:43:24.724Z,17.77
2018-10-17T21:45:53.419Z,13.43
2018-10-17T21:48:22.204Z,15.23
2018-10-17T21:50:51.055Z,15.70
2018-10-17T21:53:19.737Z,21.97
2018-10-17T21:55:48.415Z,19.00
2018-10-17T21:58:17.122Z,10.10
2018-10-17T22:00:45.824Z,13.07
2018-10-17T22:03:14.505Z,11.27
2018-10-17T22:05:43.248Z,11.97
2018-10-17T22:08:12.088Z,17.00
2018-10-17T22:10:40.690Z,14.33
2018-10-17T22:13:09.391Z,20.40
2018-10-17T22:15:38.056Z,14.30
2018-10-17T22:18:07.061Z,14.43
2018-10-17T22:20:35.760Z,14.37
2018-10-17T22:23:04.493Z,13.03
2018-10-17T22:25:33.168Z,14.83
2018-10-17T22:28:01.856Z,21.77
2018-10-17T22:30:30.644Z,12.30
2018-10-17T22:32:59.304Z,10.23
2018-10-17T22:35:27.993Z,15.13
2018-10-17T22:37:56.717Z,19.53
2018-10-17T22:40:25.363Z,14.33
2018-10-17T22:42:54.115Z,16.87
2018-10-17T22:45:22.784Z,12.47
2018-10-17T22:47:51.467Z,13.37
2018-10-17T22:50:20.248Z,18.00
2018-10-17T22:52:48.947Z,11.87
2018-10-17T22:55:17.639Z,13.77
2018-10-17T22:57:46.327Z,11.47
2018-10-17T23:00:15.040Z,12.80
2018-10-17T23:02:43.713Z,13.30
2018-10-17T23:05:12.383Z,16.73
2018-10-17T23:07:41.053Z,13.50
2018-10-17T23:10:09.766Z,12.93
2018-10-17T23:12:42.425Z,18.60
2018-10-17T23:15:13.761Z,19.07
2018-10-17T23:17:42.437Z,11.83
2018-10-17T23:20:11.293Z,11.63
2018-10-17T23:22:41.265Z,13.57
2018-10-17T23:25:11.285Z,13.40
2018-10-17T23:27:40.388Z,10.97
2018-10-17T23:30:10.106Z,19.00
2018-10-17T23:32:39.180Z,13.20
2018-10-17T23:35:07.892Z,14.17
2018-10-17T23:37:36.632Z,15.80
2018-10-17T23:40:05.783Z,13.60
2018-10-17T23:42:34.573Z,15.87
2018-10-17T23:45:03.208Z,16.77
2018-10-17T23:47:31.907Z,10.43
2018-10-17T23:50:00.598Z,20.40
2018-10-17T23:52:29.291Z,11.77
2018-10-17T23:54:57.986Z,14.43
2018-10-17T23:57:26.670Z,12.70
2018-10-17T23:59:55.371Z,14.90
